sensor_id;sensor_type;location;lat;lon;timestamp;P1;durP1;ratioP1;P2;durP2;ratioP2
79375;SDS011;68846;53.150;18.136;2024-01-06T00:01:59;11.40;;;4.30;;
79375;SDS011;68846;53.150;18.136;2024-01-06T00:04:26;8.00;;;4.20;;
79375;SDS011;68846;53.150;18.136;2024-01-06T00:06:54;8.10;;;3.90;;
79375;SDS011;68846;53.150;18.136;2024-01-06T00:09:22;8.80;;;4.30;;
79375;SDS011;68846;53.150;18.136;2024-01-06T00:11:50;7.80;;;3.60;;
79375;SDS011;68846;53.150;18.136;2024-01-06T00:14:20;6.30;;;3.50;;
79375;SDS011;68846;53.150;18.136;2024-01-06T00:16:49;9.20;;;3.40;;
79375;SDS011;68846;53.150;18.136;2024-01-06T00:19:18;8.00;;;3.80;;
79375;SDS011;68846;53.150;18.136;2024-01-06T00:21:46;6.80;;;3.60;;
79375;SDS011;68846;53.150;18.136;2024-01-06T00:24:15;8.10;;;4.00;;
79375;SDS011;68846;53.150;18.136;2024-01-06T00:26:43;8.90;;;3.60;;
79375;SDS011;68846;53.150;18.136;2024-01-06T00:29:10;9.10;;;4.40;;
79375;SDS011;68846;53.150;18.136;2024-01-06T00:31:38;11.40;;;4.70;;
79375;SDS011;68846;53.150;18.136;2024-01-06T00:34:06;6.90;;;3.10;;
79375;SDS011;68846;53.150;18.136;2024-01-06T00:36:34;9.50;;;4.00;;
79375;SDS011;68846;53.150;18.136;2024-01-06T00:39:02;9.80;;;4.30;;
79375;SDS011;68846;53.150;18.136;2024-01-06T00:41:31;7.70;;;3.40;;
79375;SDS011;68846;53.150;18.136;2024-01-06T00:43:59;10.90;;;4.30;;
79375;SDS011;68846;53.150;18.136;2024-01-06T00:46:26;7.50;;;4.40;;
79375;SDS011;68846;53.150;18.136;2024-01-06T00:48:55;8.50;;;3.90;;
79375;SDS011;68846;53.150;18.136;2024-01-06T00:51:23;10.80;;;4.60;;
79375;SDS011;68846;53.150;18.136;2024-01-06T00:53:51;8.30;;;3.90;;
79375;SDS011;68846;53.150;18.136;2024-01-06T00:56:19;7.90;;;3.40;;
79375;SDS011;68846;53.150;18.136;2024-01-06T00:58:46;7.10;;;4.00;;
79375;SDS011;68846;53.150;18.136;2024-01-06T01:01:14;7.70;;;3.50;;
79375;SDS011;68846;53.150;18.136;2024-01-06T01:03:43;9.20;;;5.00;;
79375;SDS011;68846;53.150;18.136;2024-01-06T01:06:12;10.50;;;4.10;;
79375;SDS011;68846;53.150;18.136;2024-01-06T01:08:40;11.10;;;4.20;;
79375;SDS011;68846;53.150;18.136;2024-01-06T01:11:07;9.80;;;4.40;;
79375;SDS011;68846;53.150;18.136;2024-01-06T01:13:35;10.30;;;4.70;;
79375;SDS011;68846;53.150;18.136;2024-01-06T01:16:04;9.60;;;4.30;;
79375;SDS011;68846;53.150;18.136;2024-01-06T01:18:32;8.80;;;4.10;;
79375;SDS011;68846;53.150;18.136;2024-01-06T01:21:01;7.50;;;4.30;;
79375;SDS011;68846;53.150;18.136;2024-01-06T01:23:29;10.20;;;4.40;;
79375;SDS011;68846;53.150;18.136;2024-01-06T01:25:57;9.20;;;3.70;;
79375;SDS011;68846;53.150;18.136;2024-01-06T01:28:25;9.30;;;4.70;;
79375;SDS011;68846;53.150;18.136;2024-01-06T01:30:53;8.10;;;4.60;;
79375;SDS011;68846;53.150;18.136;2024-01-06T01:33:21;9.40;;;5.10;;
79375;SDS011;68846;53.150;18.136;2024-01-06T01:35:49;10.90;;;4.40;;
79375;SDS011;68846;53.150;18.136;2024-01-06T01:38:16;7.90;;;4.60;;
79375;SDS011;68846;53.150;18.136;2024-01-06T01:40:44;9.60;;;4.30;;
79375;SDS011;68846;53.150;18.136;2024-01-06T01:43:18;10.20;;;4.30;;
79375;SDS011;68846;53.150;18.136;2024-01-06T01:50:57;8.40;;;4.00;;
79375;SDS011;68846;53.150;18.136;2024-01-06T01:53:25;10.20;;;4.40;;
79375;SDS011;68846;53.150;18.136;2024-01-06T01:55:54;12.30;;;5.80;;
79375;SDS011;68846;53.150;18.136;2024-01-06T02:02:07;9.30;;;4.00;;
79375;SDS011;68846;53.150;18.136;2024-01-06T02:04:35;8.60;;;4.20;;
79375;SDS011;68846;53.150;18.136;2024-01-06T02:11:11;9.30;;;4.00;;
79375;SDS011;68846;53.150;18.136;2024-01-06T02:13:39;8.10;;;3.90;;
79375;SDS011;68846;53.150;18.136;2024-01-06T02:19:25;11.30;;;3.40;;
79375;SDS011;68846;53.150;18.136;2024-01-06T02:25:36;8.00;;;3.60;;
79375;SDS011;68846;53.150;18.136;2024-01-06T02:28:04;8.30;;;3.90;;
79375;SDS011;68846;53.150;18.136;2024-01-06T02:34:17;7.20;;;3.30;;
79375;SDS011;68846;53.150;18.136;2024-01-06T02:36:44;7.50;;;4.10;;
79375;SDS011;68846;53.150;18.136;2024-01-06T02:39:12;13.00;;;4.30;;
79375;SDS011;68846;53.150;18.136;2024-01-06T02:41:40;8.30;;;4.10;;
79375;SDS011;68846;53.150;18.136;2024-01-06T02:44:08;13.70;;;6.10;;
79375;SDS011;68846;53.150;18.136;2024-01-06T02:46:36;9.30;;;4.80;;
79375;SDS011;68846;53.150;18.136;2024-01-06T02:53:12;8.30;;;4.50;;
79375;SDS011;68846;53.150;18.136;2024-01-06T02:55:40;9.70;;;4.70;;
79375;SDS011;68846;53.150;18.136;2024-01-06T02:58:09;11.30;;;5.00;;
79375;SDS011;68846;53.150;18.136;2024-01-06T03:00:37;10.00;;;4.90;;
79375;SDS011;68846;53.150;18.136;2024-01-06T03:03:30;11.00;;;4.80;;
79375;SDS011;68846;53.150;18.136;2024-01-06T03:10:31;8.90;;;4.60;;
79375;SDS011;68846;53.150;18.136;2024-01-06T03:12:59;9.10;;;4.40;;
79375;SDS011;68846;53.150;18.136;2024-01-06T03:15:27;7.20;;;3.90;;
79375;SDS011;68846;53.150;18.136;2024-01-06T03:17:55;7.80;;;3.90;;
79375;SDS011;68846;53.150;18.136;2024-01-06T03:20:22;8.90;;;4.50;;
79375;SDS011;68846;53.150;18.136;2024-01-06T03:22:50;8.10;;;4.20;;
79375;SDS011;68846;53.150;18.136;2024-01-06T03:25:18;7.40;;;4.00;;
79375;SDS011;68846;53.150;18.136;2024-01-06T03:32:42;11.00;;;4.80;;
79375;SDS011;68846;53.150;18.136;2024-01-06T03:40:07;9.80;;;3.90;;
79375;SDS011;68846;53.150;18.136;2024-01-06T03:42:35;11.40;;;4.60;;
79375;SDS011;68846;53.150;18.136;2024-01-06T03:45:04;10.40;;;4.80;;
79375;SDS011;68846;53.150;18.136;2024-01-06T03:47:32;8.00;;;4.50;;
79375;SDS011;68846;53.150;18.136;2024-01-06T03:54:12;6.40;;;3.60;;
79375;SDS011;68846;53.150;18.136;2024-01-06T04:01:37;6.60;;;3.70;;
79375;SDS011;68846;53.150;18.136;2024-01-06T04:04:06;10.20;;;3.70;;
79375;SDS011;68846;53.150;18.136;2024-01-06T04:06:34;8.00;;;3.90;;
79375;SDS011;68846;53.150;18.136;2024-01-06T04:09:02;7.10;;;3.30;;
79375;SDS011;68846;53.150;18.136;2024-01-06T04:16:03;9.80;;;4.20;;
79375;SDS011;68846;53.150;18.136;2024-01-06T04:18:31;7.80;;;3.50;;
79375;SDS011;68846;53.150;18.136;2024-01-06T04:25:09;11.30;;;3.80;;
79375;SDS011;68846;53.150;18.136;2024-01-06T04:30:56;9.30;;;4.30;;
79375;SDS011;68846;53.150;18.136;2024-01-06T04:38:21;9.10;;;4.00;;
79375;SDS011;68846;53.150;18.136;2024-01-06T04:45:46;7.30;;;3.70;;
79375;SDS011;68846;53.150;18.136;2024-01-06T04:48:14;7.80;;;3.90;;
79375;SDS011;68846;53.150;18.136;2024-01-06T04:55:15;10.10;;;3.90;;
79375;SDS011;68846;53.150;18.136;2024-01-06T04:57:42;8.70;;;4.40;;
79375;SDS011;68846;53.150;18.136;2024-01-06T05:04:43;8.60;;;3.50;;
79375;SDS011;68846;53.150;18.136;2024-01-06T05:07:11;7.40;;;3.30;;
79375;SDS011;68846;53.150;18.136;2024-01-06T05:13:22;7.80;;;4.30;;
79375;SDS011;68846;53.150;18.136;2024-01-06T05:15:50;9.10;;;4.70;;
79375;SDS011;68846;53.150;18.136;2024-01-06T05:18:18;8.90;;;3.80;;
79375;SDS011;68846;53.150;18.136;2024-01-06T05:20:45;7.50;;;4.40;;
79375;SDS011;68846;53.150;18.136;2024-01-06T05:23:13;7.90;;;4.30;;
79375;SDS011;68846;53.150;18.136;2024-01-06T05:25:41;9.60;;;3.90;;
79375;SDS011;68846;53.150;18.136;2024-01-06T05:28:09;8.60;;;4.40;;
79375;SDS011;68846;53.150;18.136;2024-01-06T05:30:37;7.30;;;3.30;;
79375;SDS011;68846;53.150;18.136;2024-01-06T05:33:05;12.50;;;3.60;;
79375;SDS011;68846;53.150;18.136;2024-01-06T05:35:36;8.60;;;4.20;;
79375;SDS011;68846;53.150;18.136;2024-01-06T05:38:05;5.30;;;3.30;;
79375;SDS011;68846;53.150;18.136;2024-01-06T05:40:32;7.10;;;3.20;;
79375;SDS011;68846;53.150;18.136;2024-01-06T05:47:57;8.50;;;3.40;;
79375;SDS011;68846;53.150;18.136;2024-01-06T05:50:26;7.80;;;3.50;;
79375;SDS011;68846;53.150;18.136;2024-01-06T05:57:27;10.70;;;3.30;;
79375;SDS011;68846;53.150;18.136;2024-01-06T06:04:52;8.40;;;3.50;;
79375;SDS011;68846;53.150;18.136;2024-01-06T06:17:13;4.90;;;2.40;;
79375;SDS011;68846;53.150;18.136;2024-01-06T06:24:37;5.20;;;2.20;;
79375;SDS011;68846;53.150;18.136;2024-01-06T06:27:04;5.00;;;2.60;;
79375;SDS011;68846;53.150;18.136;2024-01-06T06:37:47;3.80;;;2.20;;
79375;SDS011;68846;53.150;18.136;2024-01-06T06:40:15;4.60;;;2.60;;
79375;SDS011;68846;53.150;18.136;2024-01-06T06:42:43;6.40;;;2.90;;
79375;SDS011;68846;53.150;18.136;2024-01-06T06:45:11;5.40;;;2.80;;
79375;SDS011;68846;53.150;18.136;2024-01-06T06:47:39;5.30;;;2.90;;
79375;SDS011;68846;53.150;18.136;2024-01-06T06:50:07;8.70;;;3.10;;
79375;SDS011;68846;53.150;18.136;2024-01-06T06:52:37;6.10;;;2.90;;
79375;SDS011;68846;53.150;18.136;2024-01-06T06:55:06;7.60;;;2.90;;
79375;SDS011;68846;53.150;18.136;2024-01-06T06:57:34;7.20;;;3.30;;
79375;SDS011;68846;53.150;18.136;2024-01-06T07:00:01;5.70;;;3.20;;
79375;SDS011;68846;53.150;18.136;2024-01-06T07:07:29;7.70;;;2.90;;
79375;SDS011;68846;53.150;18.136;2024-01-06T07:09:57;8.80;;;3.90;;
79375;SDS011;68846;53.150;18.136;2024-01-06T07:12:24;8.50;;;3.60;;
79375;SDS011;68846;53.150;18.136;2024-01-06T07:19:52;10.90;;;3.60;;
79375;SDS011;68846;53.150;18.136;2024-01-06T07:22:21;7.60;;;3.40;;
79375;SDS011;68846;53.150;18.136;2024-01-06T07:24:49;7.70;;;3.20;;
79375;SDS011;68846;53.150;18.136;2024-01-06T07:27:16;7.10;;;3.20;;
79375;SDS011;68846;53.150;18.136;2024-01-06T07:30:10;5.90;;;3.00;;
79375;SDS011;68846;53.150;18.136;2024-01-06T07:32:38;6.30;;;2.90;;
79375;SDS011;68846;53.150;18.136;2024-01-06T07:35:06;7.30;;;3.20;;
79375;SDS011;68846;53.150;18.136;2024-01-06T07:37:34;6.10;;;2.70;;
79375;SDS011;68846;53.150;18.136;2024-01-06T07:48:18;5.10;;;3.20;;
79375;SDS011;68846;53.150;18.136;2024-01-06T07:50:45;7.20;;;3.30;;
79375;SDS011;68846;53.150;18.136;2024-01-06T07:53:13;6.20;;;3.10;;
79375;SDS011;68846;53.150;18.136;2024-01-06T07:59:25;4.30;;;2.30;;
79375;SDS011;68846;53.150;18.136;2024-01-06T08:01:53;7.80;;;3.30;;
79375;SDS011;68846;53.150;18.136;2024-01-06T08:04:21;7.10;;;3.50;;
79375;SDS011;68846;53.150;18.136;2024-01-06T08:06:48;7.00;;;3.40;;
79375;SDS011;68846;53.150;18.136;2024-01-06T08:09:16;7.70;;;3.80;;
79375;SDS011;68846;53.150;18.136;2024-01-06T08:11:44;9.70;;;3.60;;
79375;SDS011;68846;53.150;18.136;2024-01-06T08:14:15;10.50;;;3.70;;
79375;SDS011;68846;53.150;18.136;2024-01-06T08:16:44;10.40;;;3.90;;
79375;SDS011;68846;53.150;18.136;2024-01-06T08:19:14;8.60;;;3.60;;
79375;SDS011;68846;53.150;18.136;2024-01-06T08:21:44;6.40;;;3.60;;
79375;SDS011;68846;53.150;18.136;2024-01-06T08:24:12;8.40;;;4.20;;
79375;SDS011;68846;53.150;18.136;2024-01-06T08:26:40;10.10;;;4.30;;
79375;SDS011;68846;53.150;18.136;2024-01-06T08:29:08;5.50;;;3.30;;
79375;SDS011;68846;53.150;18.136;2024-01-06T08:31:36;7.70;;;3.60;;
79375;SDS011;68846;53.150;18.136;2024-01-06T08:34:03;5.20;;;3.40;;
79375;SDS011;68846;53.150;18.136;2024-01-06T08:36:34;6.60;;;3.40;;
79375;SDS011;68846;53.150;18.136;2024-01-06T08:39:02;7.70;;;3.60;;
79375;SDS011;68846;53.150;18.136;2024-01-06T08:41:30;7.60;;;4.10;;
79375;SDS011;68846;53.150;18.136;2024-01-06T08:43:58;5.60;;;3.00;;
79375;SDS011;68846;53.150;18.136;2024-01-06T08:46:27;8.20;;;4.20;;
79375;SDS011;68846;53.150;18.136;2024-01-06T08:48:56;7.50;;;4.50;;
79375;SDS011;68846;53.150;18.136;2024-01-06T08:51:24;6.90;;;3.50;;
79375;SDS011;68846;53.150;18.136;2024-01-06T08:53:53;8.60;;;4.10;;
79375;SDS011;68846;53.150;18.136;2024-01-06T08:56:21;8.40;;;3.60;;
79375;SDS011;68846;53.150;18.136;2024-01-06T08:58:49;7.70;;;4.40;;
79375;SDS011;68846;53.150;18.136;2024-01-06T09:01:19;9.00;;;4.30;;
79375;SDS011;68846;53.150;18.136;2024-01-06T09:03:48;6.90;;;3.20;;
79375;SDS011;68846;53.150;18.136;2024-01-06T09:06:17;9.40;;;4.20;;
79375;SDS011;68846;53.150;18.136;2024-01-06T09:17:53;8.50;;;4.00;;
79375;SDS011;68846;53.150;18.136;2024-01-06T09:20:20;8.50;;;4.40;;
79375;SDS011;68846;53.150;18.136;2024-01-06T09:22:51;11.00;;;4.60;;
79375;SDS011;68846;53.150;18.136;2024-01-06T09:25:19;7.80;;;4.40;;
79375;SDS011;68846;53.150;18.136;2024-01-06T09:27:47;10.00;;;4.80;;
79375;SDS011;68846;53.150;18.136;2024-01-06T09:30:15;9.90;;;5.00;;
79375;SDS011;68846;53.150;18.136;2024-01-06T09:32:42;9.00;;;4.80;;
79375;SDS011;68846;53.150;18.136;2024-01-06T09:35:10;10.70;;;5.20;;
79375;SDS011;68846;53.150;18.136;2024-01-06T09:37:38;10.30;;;4.40;;
79375;SDS011;68846;53.150;18.136;2024-01-06T09:40:11;9.10;;;4.30;;
79375;SDS011;68846;53.150;18.136;2024-01-06T09:42:43;12.50;;;4.40;;
79375;SDS011;68846;53.150;18.136;2024-01-06T09:45:10;8.60;;;4.80;;
79375;SDS011;68846;53.150;18.136;2024-01-06T09:47:38;10.10;;;4.60;;
79375;SDS011;68846;53.150;18.136;2024-01-06T09:50:10;10.00;;;4.80;;
79375;SDS011;68846;53.150;18.136;2024-01-06T09:52:41;9.70;;;4.60;;
79375;SDS011;68846;53.150;18.136;2024-01-06T09:55:11;10.60;;;5.20;;
79375;SDS011;68846;53.150;18.136;2024-01-06T09:57:39;11.00;;;5.40;;
79375;SDS011;68846;53.150;18.136;2024-01-06T10:00:08;11.40;;;5.80;;
79375;SDS011;68846;53.150;18.136;2024-01-06T10:02:40;11.70;;;6.10;;
79375;SDS011;68846;53.150;18.136;2024-01-06T10:05:08;13.70;;;5.30;;
79375;SDS011;68846;53.150;18.136;2024-01-06T10:07:37;10.60;;;5.20;;
79375;SDS011;68846;53.150;18.136;2024-01-06T10:10:07;11.20;;;5.30;;
79375;SDS011;68846;53.150;18.136;2024-01-06T10:12:38;10.30;;;5.20;;
79375;SDS011;68846;53.150;18.136;2024-01-06T10:15:08;11.10;;;5.20;;
79375;SDS011;68846;53.150;18.136;2024-01-06T10:17:41;12.10;;;5.60;;
79375;SDS011;68846;53.150;18.136;2024-01-06T10:20:11;13.00;;;5.90;;
79375;SDS011;68846;53.150;18.136;2024-01-06T10:22:41;10.00;;;4.00;;
79375;SDS011;68846;53.150;18.136;2024-01-06T10:25:12;8.90;;;4.70;;
79375;SDS011;68846;53.150;18.136;2024-01-06T10:27:41;10.20;;;4.90;;
79375;SDS011;68846;53.150;18.136;2024-01-06T10:30:09;9.40;;;4.90;;
79375;SDS011;68846;53.150;18.136;2024-01-06T10:32:38;9.30;;;4.70;;
79375;SDS011;68846;53.150;18.136;2024-01-06T10:35:06;10.10;;;4.20;;
79375;SDS011;68846;53.150;18.136;2024-01-06T10:37:35;8.10;;;4.10;;
79375;SDS011;68846;53.150;18.136;2024-01-06T10:40:09;10.40;;;5.10;;
79375;SDS011;68846;53.150;18.136;2024-01-06T10:42:39;10.60;;;5.00;;
79375;SDS011;68846;53.150;18.136;2024-01-06T10:45:09;9.40;;;4.70;;
79375;SDS011;68846;53.150;18.136;2024-01-06T10:47:42;10.20;;;4.90;;
79375;SDS011;68846;53.150;18.136;2024-01-06T10:50:12;12.70;;;5.00;;
79375;SDS011;68846;53.150;18.136;2024-01-06T10:52:42;8.50;;;5.00;;
79375;SDS011;68846;53.150;18.136;2024-01-06T10:55:11;6.80;;;3.50;;
79375;SDS011;68846;53.150;18.136;2024-01-06T10:57:39;8.60;;;4.50;;
79375;SDS011;68846;53.150;18.136;2024-01-06T11:00:11;8.60;;;4.20;;
79375;SDS011;68846;53.150;18.136;2024-01-06T11:02:40;10.00;;;4.70;;
79375;SDS011;68846;53.150;18.136;2024-01-06T11:05:09;7.40;;;4.40;;
79375;SDS011;68846;53.150;18.136;2024-01-06T11:07:37;8.50;;;4.80;;
79375;SDS011;68846;53.150;18.136;2024-01-06T11:10:11;8.00;;;4.20;;
79375;SDS011;68846;53.150;18.136;2024-01-06T11:12:53;11.00;;;4.80;;
79375;SDS011;68846;53.150;18.136;2024-01-06T11:15:43;13.90;;;5.20;;
79375;SDS011;68846;53.150;18.136;2024-01-06T11:18:32;12.00;;;4.40;;
79375;SDS011;68846;53.150;18.136;2024-01-06T11:24:15;8.40;;;4.00;;
79375;SDS011;68846;53.150;18.136;2024-01-06T11:26:55;8.20;;;3.50;;
79375;SDS011;68846;53.150;18.136;2024-01-06T11:29:24;8.20;;;3.70;;
79375;SDS011;68846;53.150;18.136;2024-01-06T11:32:34;8.70;;;4.30;;
79375;SDS011;68846;53.150;18.136;2024-01-06T11:35:12;9.20;;;4.20;;
79375;SDS011;68846;53.150;18.136;2024-01-06T11:43:11;11.30;;;5.40;;
79375;SDS011;68846;53.150;18.136;2024-01-06T11:45:42;9.20;;;4.50;;
79375;SDS011;68846;53.150;18.136;2024-01-06T11:48:11;9.10;;;4.40;;
79375;SDS011;68846;53.150;18.136;2024-01-06T11:50:39;11.30;;;4.30;;
79375;SDS011;68846;53.150;18.136;2024-01-06T11:53:10;8.10;;;4.40;;
79375;SDS011;68846;53.150;18.136;2024-01-06T11:55:39;13.00;;;4.70;;
79375;SDS011;68846;53.150;18.136;2024-01-06T11:58:07;8.90;;;4.00;;
79375;SDS011;68846;53.150;18.136;2024-01-06T12:00:35;8.00;;;3.60;;
79375;SDS011;68846;53.150;18.136;2024-01-06T12:03:09;7.20;;;3.40;;
79375;SDS011;68846;53.150;18.136;2024-01-06T12:05:37;9.80;;;4.20;;
79375;SDS011;68846;53.150;18.136;2024-01-06T12:08:05;8.10;;;4.00;;
79375;SDS011;68846;53.150;18.136;2024-01-06T12:10:34;8.40;;;4.90;;
79375;SDS011;68846;53.150;18.136;2024-01-06T12:13:04;9.60;;;4.20;;
79375;SDS011;68846;53.150;18.136;2024-01-06T12:15:36;8.40;;;4.00;;
79375;SDS011;68846;53.150;18.136;2024-01-06T12:18:07;9.70;;;5.30;;
79375;SDS011;68846;53.150;18.136;2024-01-06T12:20:37;7.80;;;3.80;;
79375;SDS011;68846;53.150;18.136;2024-01-06T12:23:04;9.30;;;4.10;;
79375;SDS011;68846;53.150;18.136;2024-01-06T12:25:34;12.30;;;5.00;;
79375;SDS011;68846;53.150;18.136;2024-01-06T12:28:05;11.70;;;4.90;;
79375;SDS011;68846;53.150;18.136;2024-01-06T12:30:33;11.40;;;5.40;;
79375;SDS011;68846;53.150;18.136;2024-01-06T12:33:02;18.00;;;5.30;;
79375;SDS011;68846;53.150;18.136;2024-01-06T12:35:32;10.30;;;5.30;;
79375;SDS011;68846;53.150;18.136;2024-01-06T12:38:02;12.30;;;5.10;;
79375;SDS011;68846;53.150;18.136;2024-01-06T12:40:35;9.40;;;4.80;;
79375;SDS011;68846;53.150;18.136;2024-01-06T12:43:05;11.10;;;4.40;;
79375;SDS011;68846;53.150;18.136;2024-01-06T12:45:33;8.50;;;4.00;;
79375;SDS011;68846;53.150;18.136;2024-01-06T12:48:01;5.60;;;3.70;;
79375;SDS011;68846;53.150;18.136;2024-01-06T12:50:28;10.30;;;4.60;;
79375;SDS011;68846;53.150;18.136;2024-01-06T12:52:56;9.20;;;3.90;;
79375;SDS011;68846;53.150;18.136;2024-01-06T12:55:24;7.50;;;3.00;;
79375;SDS011;68846;53.150;18.136;2024-01-06T12:57:52;6.00;;;3.20;;
79375;SDS011;68846;53.150;18.136;2024-01-06T13:00:20;6.80;;;3.00;;
79375;SDS011;68846;53.150;18.136;2024-01-06T13:02:48;8.50;;;3.40;;
79375;SDS011;68846;53.150;18.136;2024-01-06T13:13:56;6.40;;;2.80;;
79375;SDS011;68846;53.150;18.136;2024-01-06T13:21:21;6.30;;;3.10;;
79375;SDS011;68846;53.150;18.136;2024-01-06T13:23:50;6.60;;;3.40;;
79375;SDS011;68846;53.150;18.136;2024-01-06T13:26:43;6.80;;;3.30;;
79375;SDS011;68846;53.150;18.136;2024-01-06T13:29:11;5.60;;;3.10;;
79375;SDS011;68846;53.150;18.136;2024-01-06T13:31:39;6.10;;;2.80;;
79375;SDS011;68846;53.150;18.136;2024-01-06T13:34:07;5.90;;;3.20;;
79375;SDS011;68846;53.150;18.136;2024-01-06T13:36:35;6.90;;;3.20;;
79375;SDS011;68846;53.150;18.136;2024-01-06T13:39:03;6.00;;;3.50;;
79375;SDS011;68846;53.150;18.136;2024-01-06T13:41:32;8.90;;;3.30;;
79375;SDS011;68846;53.150;18.136;2024-01-06T13:44:00;7.20;;;3.40;;
79375;SDS011;68846;53.150;18.136;2024-01-06T13:46:27;7.50;;;3.20;;
79375;SDS011;68846;53.150;18.136;2024-01-06T13:48:55;6.40;;;3.40;;
79375;SDS011;68846;53.150;18.136;2024-01-06T13:51:23;9.70;;;4.10;;
79375;SDS011;68846;53.150;18.136;2024-01-06T13:53:52;6.70;;;3.90;;
79375;SDS011;68846;53.150;18.136;2024-01-06T13:56:20;7.90;;;3.90;;
79375;SDS011;68846;53.150;18.136;2024-01-06T13:58:49;7.00;;;3.70;;
79375;SDS011;68846;53.150;18.136;2024-01-06T14:01:19;5.70;;;3.20;;
79375;SDS011;68846;53.150;18.136;2024-01-06T14:03:47;6.20;;;3.40;;
79375;SDS011;68846;53.150;18.136;2024-01-06T14:06:16;9.60;;;3.90;;
79375;SDS011;68846;53.150;18.136;2024-01-06T14:08:45;8.70;;;3.40;;
79375;SDS011;68846;53.150;18.136;2024-01-06T14:11:13;7.10;;;3.80;;
79375;SDS011;68846;53.150;18.136;2024-01-06T14:13:41;6.70;;;3.00;;
79375;SDS011;68846;53.150;18.136;2024-01-06T14:16:09;6.50;;;3.30;;
79375;SDS011;68846;53.150;18.136;2024-01-06T14:18:36;3.90;;;2.80;;
79375;SDS011;68846;53.150;18.136;2024-01-06T14:21:05;7.50;;;3.80;;
79375;SDS011;68846;53.150;18.136;2024-01-06T14:23:32;6.00;;;3.30;;
79375;SDS011;68846;53.150;18.136;2024-01-06T14:26:00;9.90;;;2.90;;
79375;SDS011;68846;53.150;18.136;2024-01-06T14:28:28;7.40;;;3.20;;
79375;SDS011;68846;53.150;18.136;2024-01-06T14:30:57;5.80;;;3.20;;
79375;SDS011;68846;53.150;18.136;2024-01-06T14:33:26;9.60;;;3.80;;
79375;SDS011;68846;53.150;18.136;2024-01-06T14:35:54;8.50;;;3.20;;
79375;SDS011;68846;53.150;18.136;2024-01-06T14:38:22;6.20;;;3.20;;
79375;SDS011;68846;53.150;18.136;2024-01-06T14:40:50;5.40;;;2.90;;
79375;SDS011;68846;53.150;18.136;2024-01-06T14:43:19;6.10;;;2.90;;
79375;SDS011;68846;53.150;18.136;2024-01-06T14:45:48;9.20;;;3.90;;
79375;SDS011;68846;53.150;18.136;2024-01-06T14:48:16;5.50;;;3.10;;
79375;SDS011;68846;53.150;18.136;2024-01-06T14:50:43;9.40;;;3.20;;
79375;SDS011;68846;53.150;18.136;2024-01-06T14:53:12;9.40;;;3.50;;
79375;SDS011;68846;53.150;18.136;2024-01-06T14:55:40;6.20;;;3.80;;
79375;SDS011;68846;53.150;18.136;2024-01-06T14:58:08;9.00;;;4.60;;
79375;SDS011;68846;53.150;18.136;2024-01-06T15:00:36;6.00;;;3.00;;
79375;SDS011;68846;53.150;18.136;2024-01-06T15:03:04;7.10;;;3.20;;
79375;SDS011;68846;53.150;18.136;2024-01-06T15:05:33;8.40;;;3.60;;
79375;SDS011;68846;53.150;18.136;2024-01-06T15:08:01;10.10;;;3.70;;
79375;SDS011;68846;53.150;18.136;2024-01-06T15:10:29;5.60;;;3.30;;
79375;SDS011;68846;53.150;18.136;2024-01-06T15:13:04;7.40;;;2.90;;
79375;SDS011;68846;53.150;18.136;2024-01-06T15:15:35;7.50;;;3.10;;
79375;SDS011;68846;53.150;18.136;2024-01-06T15:18:04;5.70;;;3.20;;
79375;SDS011;68846;53.150;18.136;2024-01-06T15:20:33;6.30;;;3.60;;
79375;SDS011;68846;53.150;18.136;2024-01-06T15:23:01;6.70;;;3.10;;
79375;SDS011;68846;53.150;18.136;2024-01-06T15:25:29;7.80;;;3.50;;
79375;SDS011;68846;53.150;18.136;2024-01-06T15:27:56;7.10;;;3.50;;
79375;SDS011;68846;53.150;18.136;2024-01-06T15:30:24;5.40;;;3.10;;
79375;SDS011;68846;53.150;18.136;2024-01-06T15:32:52;8.30;;;3.50;;
79375;SDS011;68846;53.150;18.136;2024-01-06T15:35:20;9.60;;;3.80;;
79375;SDS011;68846;53.150;18.136;2024-01-06T15:37:50;8.30;;;3.50;;
79375;SDS011;68846;53.150;18.136;2024-01-06T15:40:18;7.80;;;3.30;;
79375;SDS011;68846;53.150;18.136;2024-01-06T15:42:47;8.50;;;3.70;;
79375;SDS011;68846;53.150;18.136;2024-01-06T15:45:15;10.70;;;4.50;;
79375;SDS011;68846;53.150;18.136;2024-01-06T15:47:44;12.50;;;4.40;;
79375;SDS011;68846;53.150;18.136;2024-01-06T15:50:12;9.30;;;4.10;;
79375;SDS011;68846;53.150;18.136;2024-01-06T15:52:40;6.60;;;3.70;;
79375;SDS011;68846;53.150;18.136;2024-01-06T15:55:08;11.00;;;3.80;;
79375;SDS011;68846;53.150;18.136;2024-01-06T15:57:38;8.60;;;4.10;;
79375;SDS011;68846;53.150;18.136;2024-01-06T16:00:06;8.50;;;4.10;;
79375;SDS011;68846;53.150;18.136;2024-01-06T16:02:35;7.50;;;3.90;;
79375;SDS011;68846;53.150;18.136;2024-01-06T16:05:03;9.00;;;4.40;;
79375;SDS011;68846;53.150;18.136;2024-01-06T16:07:32;7.10;;;3.70;;
79375;SDS011;68846;53.150;18.136;2024-01-06T16:10:00;9.40;;;4.10;;
79375;SDS011;68846;53.150;18.136;2024-01-06T16:12:28;8.90;;;4.10;;
79375;SDS011;68846;53.150;18.136;2024-01-06T16:14:58;7.60;;;3.10;;
79375;SDS011;68846;53.150;18.136;2024-01-06T16:17:26;7.40;;;3.20;;
79375;SDS011;68846;53.150;18.136;2024-01-06T16:19:54;5.40;;;2.90;;
79375;SDS011;68846;53.150;18.136;2024-01-06T16:22:22;6.30;;;3.40;;
79375;SDS011;68846;53.150;18.136;2024-01-06T16:24:50;8.20;;;3.40;;
79375;SDS011;68846;53.150;18.136;2024-01-06T16:27:18;5.70;;;3.30;;
79375;SDS011;68846;53.150;18.136;2024-01-06T16:29:46;7.50;;;3.40;;
79375;SDS011;68846;53.150;18.136;2024-01-06T16:32:14;7.20;;;3.10;;
79375;SDS011;68846;53.150;18.136;2024-01-06T16:34:42;6.80;;;3.60;;
79375;SDS011;68846;53.150;18.136;2024-01-06T16:37:10;6.30;;;3.40;;
79375;SDS011;68846;53.150;18.136;2024-01-06T16:39:38;8.90;;;4.00;;
79375;SDS011;68846;53.150;18.136;2024-01-06T16:42:07;7.30;;;3.10;;
79375;SDS011;68846;53.150;18.136;2024-01-06T16:44:34;6.80;;;3.50;;
79375;SDS011;68846;53.150;18.136;2024-01-06T16:47:02;6.40;;;3.00;;
79375;SDS011;68846;53.150;18.136;2024-01-06T16:49:32;6.00;;;2.70;;
79375;SDS011;68846;53.150;18.136;2024-01-06T16:52:00;9.30;;;3.50;;
79375;SDS011;68846;53.150;18.136;2024-01-06T16:54:28;7.70;;;3.50;;
79375;SDS011;68846;53.150;18.136;2024-01-06T16:56:58;7.60;;;3.40;;
79375;SDS011;68846;53.150;18.136;2024-01-06T16:59:30;5.60;;;2.40;;
79375;SDS011;68846;53.150;18.136;2024-01-06T17:02:01;7.40;;;3.30;;
79375;SDS011;68846;53.150;18.136;2024-01-06T17:04:31;7.60;;;3.10;;
79375;SDS011;68846;53.150;18.136;2024-01-06T17:07:04;6.50;;;2.70;;
79375;SDS011;68846;53.150;18.136;2024-01-06T17:09:34;6.70;;;3.30;;
79375;SDS011;68846;53.150;18.136;2024-01-06T17:12:04;5.10;;;2.50;;
79375;SDS011;68846;53.150;18.136;2024-01-06T17:14:33;8.00;;;3.50;;
79375;SDS011;68846;53.150;18.136;2024-01-06T17:17:00;6.20;;;2.60;;
79375;SDS011;68846;53.150;18.136;2024-01-06T17:19:28;7.30;;;3.50;;
79375;SDS011;68846;53.150;18.136;2024-01-06T17:21:56;7.60;;;3.30;;
79375;SDS011;68846;53.150;18.136;2024-01-06T17:24:25;6.30;;;2.70;;
79375;SDS011;68846;53.150;18.136;2024-01-06T17:26:53;6.70;;;3.10;;
79375;SDS011;68846;53.150;18.136;2024-01-06T17:29:22;5.00;;;2.80;;
79375;SDS011;68846;53.150;18.136;2024-01-06T17:31:49;6.60;;;3.50;;
79375;SDS011;68846;53.150;18.136;2024-01-06T17:34:18;5.60;;;2.70;;
79375;SDS011;68846;53.150;18.136;2024-01-06T17:36:46;5.80;;;3.70;;
79375;SDS011;68846;53.150;18.136;2024-01-06T17:39:15;7.50;;;3.40;;